Latest Weather Observations for Coles Point

IDS60801

Issued at 9:02 am CDT Thursday 5 March 2015 (issued every 30 minutes, with the page automatically refreshed every 10 minutes)

About weather observations | Map of weather stations | Latest weather observations for SA | Other Formats
Station Details ID: 018191 Name: COLES POINT Lat: -34.37 Lon: 135.37 Height: 28.0 m
Data from the previous 72 hours. | See also: Recent months at Coles Point
Date/Time
CDT
Temp
°C
App
Temp
°C
Dew
Point
Rel
Hum
%
Delta-T
°C
Wind Press
QNH
hPa
Press
MSL
hPa
Rain
since 9 am
mm
Dir
 
Spd
km/h
Gust
km/h
Spd
kts
Gust
kts
05/09:00am 16.9 11.5 8.1 56 4.4 SSE 26 35 14 19 1024.3 1024.2 0.0
05/08:30am 15.4 14.6 8.2 62 3.6 SSE 2 2 1 1 1023.9 1023.8 0.0
05/08:00am 14.9 13.1 7.9 63 3.5 SSE 7 9 4 5 1023.4 1023.3 0.0
05/07:30am 15.2 11.9 8.2 63 3.5 SSE 15 19 8 10 1023.1 1023.0 0.0
05/07:00am 15.5 12.0 8.7 64 3.4 SSE 17 22 9 12 1023.3 1023.2 0.0
05/06:30am 15.8 12.9 9.7 67 3.2 SSE 15 19 8 10 1022.7 1022.6 0.0
05/06:00am 16.4 13.0 9.3 63 3.7 SSE 17 22 9 12 1022.2 1022.1 0.0
05/05:30am 17.0 12.9 10.1 64 3.6 SSE 22 37 12 20 1021.9 1021.8 0.0
05/05:00am 16.5 12.6 10.8 69 3.0 S 22 32 12 17 1021.8 1021.7 0.0
05/04:30am 16.6 13.2 10.7 68 3.1 S 19 28 10 15 1021.9 1021.8 0.0
05/04:00am 16.2 14.0 10.9 71 2.8 S 13 19 7 10 1021.7 1021.6 0.0
05/03:30am 16.9 13.3 12.0 73 2.7 S 22 30 12 16 1021.5 1021.4 0.0
05/03:00am 17.4 13.8 12.9 75 2.5 S 24 37 13 20 1021.5 1021.4 0.0
05/02:30am 17.6 14.8 13.3 76 2.4 S 20 28 11 15 1021.8 1021.7 0.0
05/02:00am 17.8 14.1 12.7 72 2.8 S 24 33 13 18 1021.9 1021.8 0.0
05/01:30am 17.3 14.0 14.0 81 1.9 S 24 32 13 17 1022.0 1021.9 0.0
05/01:00am 16.4 13.1 14.1 86 1.3 S 24 35 13 19 1021.8 1021.7 0.0
05/12:30am 17.4 16.0 14.5 83 1.7 SW 15 20 8 11 1021.9 1021.8 0.0
05/12:00am 17.3 15.7 14.0 81 1.9 SW 15 20 8 11 1021.9 1021.8 0.0
 
Date/Time
CDT
Temp
°C
App
Temp
°C
Dew
Point
Rel
Hum
%
Delta-T
°C
Wind Press
QNH
hPa
Press
MSL
hPa
Rain
since 9 am
mm
Dir
 
Spd
km/h
Gust
km/h
Spd
kts
Gust
kts
04/11:30pm 17.5 16.2 14.8 84 1.6 WSW 15 19 8 10 1021.7 1021.6 0.0
04/11:00pm 17.1 16.4 14.4 84 1.5 WSW 11 15 6 8 1021.6 1021.5 0.0
04/10:30pm 17.3 16.2 14.2 82 1.8 WSW 13 15 7 8 1021.4 1021.3 0.0
04/10:00pm 17.6 14.4 14.3 81 1.9 WSW 24 33 13 18 1021.5 1021.4 0.0
04/09:30pm 18.0 16.8 13.9 77 2.3 W 13 19 7 10 1021.0 1020.9 0.0
04/09:00pm 18.0 16.7 13.7 76 2.4 W 13 17 7 9 1020.7 1020.6 0.0
04/08:30pm 18.1 16.0 13.6 75 2.5 WSW 17 20 9 11 1020.6 1020.5 0.0
04/08:00pm 18.3 15.7 13.2 72 2.9 WSW 19 26 10 14 1020.4 1020.3 0.0
04/07:30pm 18.3 16.3 13.8 75 2.6 W 17 20 9 11 1019.9 1019.8 0.0
04/07:00pm 18.6 16.5 13.5 72 2.9 W 17 24 9 13 1019.8 1019.7 0.0
04/06:30pm 19.0 16.6 12.7 67 3.5 W 17 22 9 12 1019.6 1019.5 0.0
04/06:00pm 19.1 16.3 12.6 66 3.6 W 19 24 10 13 1019.6 1019.5 0.0
04/05:30pm 19.9 16.9 12.7 63 4.1 WSW 20 26 11 14 1019.5 1019.4 0.0
04/05:00pm 19.4 15.6 12.4 64 3.9 W 24 30 13 16 1019.3 1019.2 0.0
04/04:30pm 19.6 15.9 11.6 60 4.4 W 22 28 12 15 1019.5 1019.4 0.0
04/04:00pm 20.3 17.2 11.5 57 4.9 W 19 24 10 13 1019.7 1019.6 0.0
04/03:30pm 20.5 17.2 11.7 57 4.9 W 20 26 11 14 1020.0 1019.9 0.0
04/03:00pm 20.5 16.2 10.6 53 5.4 W 24 30 13 16 1020.1 1020.0 0.0
04/02:30pm 20.8 17.4 10.6 52 5.5 W 19 24 10 13 1020.1 1020.0 0.0
04/02:00pm 20.0 16.5 11.0 56 4.9 WSW 20 26 11 14 1020.3 1020.2 0.0
04/01:30pm 19.7 16.4 10.9 57 4.8 W 19 24 10 13 1020.7 1020.6 0.0
04/01:00pm 20.0 16.4 10.7 55 5.1 WSW 20 26 11 14 1020.7 1020.6 0.0
04/12:30pm 20.2 17.9 10.3 53 5.3 W 13 19 7 10 1020.8 1020.7 0.0
04/12:00pm 19.4 16.7 9.0 51 5.4 WSW 13 17 7 9 1021.1 1021.0 0.0
04/11:30am 19.2 17.1 9.7 54 5.0 W 11 17 6 9 1020.9 1020.8 0.0
04/11:00am 19.1 17.7 9.6 54 5.0 WSW 7 13 4 7 1020.8 1020.7 0.0
04/10:30am 18.6 17.4 9.4 55 4.8 SW 6 11 3 6 1020.7 1020.6 0.0
04/10:00am 18.1 15.9 9.2 56 4.7 SW 11 15 6 8 1021.0 1020.9 0.0
04/09:30am 17.9 15.4 9.8 59 4.3 SW 13 17 7 9 1021.0 1020.9 0.0
04/09:00am 17.6 14.7 9.5 59 4.2 SW 15 20 8 11 1020.7 1020.6 0.0
04/08:30am 16.7 15.2 11.8 73 2.7 SSW 11 17 6 9 1020.5 1020.4 0.0
04/08:00am 14.1 14.5 11.3 83 1.5 CALM 0 4 0 2 1020.1 1020.0 0.0
04/07:30am 13.2 12.7 10.7 85 1.3 NE 4 6 2 3 1019.9 1019.8 0.0
04/07:00am 12.8 13.0 10.5 86 1.2 CALM 0 0 0 0 1019.6 1019.5 0.0
04/06:30am 12.9 13.1 10.6 86 1.2 CALM 0 0 0 0 1019.5 1019.4 0.0
04/06:00am 12.6 11.7 10.5 87 1.1 ENE 6 7 3 4 1019.3 1019.2 0.0
04/05:30am 12.4 11.3 9.8 84 1.3 ENE 6 9 3 5 1019.2 1019.1 0.0
04/05:00am 13.0 12.0 10.2 83 1.4 ESE 6 7 3 4 1019.1 1019.0 0.0
04/04:30am 13.4 12.3 10.8 84 1.4 SE 7 9 4 5 1019.1 1019.0 0.0
04/04:00am 13.8 12.8 11.0 83 1.5 SSE 7 9 4 5 1019.0 1018.9 0.0
04/03:30am 14.7 13.5 11.5 81 1.7 SSE 9 11 5 6 1019.0 1018.9 0.0
04/03:00am 14.8 13.7 11.8 82 1.6 SSE 9 9 5 5 1019.4 1019.3 0.0
04/02:30am 15.2 14.7 12.0 81 1.7 S 6 7 3 4 1019.9 1019.8 0.0
04/02:00am 15.5 14.9 12.3 81 1.8 S 7 9 4 5 1020.0 1019.9 0.0
04/01:30am 16.0 15.1 12.7 81 1.8 S 9 11 5 6 1020.2 1020.1 0.0
04/01:00am 16.3 15.5 12.8 80 1.9 S 9 13 5 7 1020.3 1020.2 0.0
04/12:30am 16.2 15.3 12.7 80 1.9 S 9 11 5 6 1020.1 1020.0 0.0
04/12:00am 16.3 15.4 12.7 79 2.0 SSE 9 11 5 6 1020.5 1020.4 0.0
 
Date/Time
CDT
Temp
°C
App
Temp
°C
Dew
Point
Rel
Hum
%
Delta-T
°C
Wind Press
QNH
hPa
Press
MSL
hPa
Rain
since 9 am
mm
Dir
 
Spd
km/h
Gust
km/h
Spd
kts
Gust
kts
03/11:30pm 16.0 15.4 12.2 78 2.1 SSE 7 9 4 5 1020.7 1020.6 0.0
03/11:00pm 15.9 14.8 11.9 77 2.2 SSE 9 11 5 6 1020.8 1020.7 0.0
03/10:30pm 15.8 14.3 11.8 77 2.2 SSE 11 13 6 7 1020.8 1020.7 0.0
03/10:00pm 16.4 14.6 12.0 75 2.4 S 13 17 7 9 1020.5 1020.4 0.0
03/09:30pm 16.8 14.5 11.9 73 2.7 S 15 19 8 10 1020.2 1020.1 0.0
03/09:00pm 17.1 14.8 11.8 71 2.9 S 15 20 8 11 1019.9 1019.8 0.0
03/08:30pm 17.6 15.1 11.2 66 3.5 S 15 22 8 12 1019.7 1019.6 0.0
03/08:00pm 18.2 14.7 11.0 63 3.9 S 20 26 11 14 1019.2 1019.1 0.0
03/07:30pm 18.7 14.9 11.0 61 4.2 S 22 30 12 16 1018.7 1018.6 0.0
03/07:00pm 19.2 14.2 11.0 59 4.5 S 28 35 15 19 1018.4 1018.3 0.0
03/06:30pm 19.7 14.5 10.4 55 5.0 S 28 37 15 20 1018.1 1018.1 0.0
03/06:00pm 20.7 15.8 9.9 50 5.8 S 26 35 14 19 1018.0 1018.0 0.0
03/05:30pm 20.5 14.4 9.7 50 5.8 S 32 39 17 21 1017.9 1017.9 0.0
03/05:00pm 20.9 14.8 10.4 51 5.7 S 33 41 18 22 1017.6 1017.6 0.0
03/04:30pm 21.7 15.1 9.9 47 6.4 SSW 35 44 19 24 1017.4 1017.4 0.0
03/04:00pm 22.0 15.1 10.2 47 6.4 SSW 37 44 20 24 1017.5 1017.5 0.0
03/03:30pm 22.4 15.6 10.5 47 6.5 SSW 37 43 20 23 1017.7 1017.7 0.0
03/03:00pm 22.4 16.3 10.5 47 6.5 S 33 43 18 23 1018.0 1018.0 0.0
03/02:30pm 23.0 17.1 10.4 45 6.9 SSW 32 39 17 21 1018.0 1018.0 0.0
03/02:00pm 21.6 15.8 10.7 50 6.0 SSW 32 39 17 21 1018.0 1018.0 0.0
03/01:30pm 21.8 16.5 11.2 51 5.9 SSW 30 39 16 21 1018.5 1018.4 0.0
03/01:00pm 22.1 17.4 10.6 48 6.3 SSW 26 35 14 19 1018.8 1018.7 0.0
03/12:30pm 22.8 19.3 10.3 45 6.8 S 19 33 10 18 1019.3 1019.2 0.0
03/12:00pm 21.1 17.5 10.0 49 6.0 SSE 19 28 10 15 1019.7 1019.6 0.0
03/11:30am 21.1 18.1 10.6 51 5.7 SSE 17 24 9 13 1020.0 1019.9 0.0
03/11:00am 21.0 17.8 11.1 53 5.5 SE 19 28 10 15 1019.7 1019.6 0.0
03/10:30am 19.8 16.4 11.3 58 4.7 SSE 20 30 11 16 1019.9 1019.8 0.0
03/10:00am 18.7 15.0 11.5 63 3.9 SSE 22 28 12 15 1020.0 1019.9 0.0
03/09:30am 18.1 14.7 11.4 65 3.6 SSE 20 24 11 13 1019.9 1019.8 0.0
03/09:00am 17.5 14.4 11.5 68 3.3 SSE 19 24 10 13 1019.9 1019.8 0.0
03/08:30am 16.3 13.8 11.2 72 2.7 SE 15 19 8 10 1019.6 1019.5 0.0
03/08:00am 15.8 14.2 11.4 75 2.4 SSE 11 15 6 8 1019.0 1018.9 0.0
03/07:30am 15.2 12.7 11.2 77 2.1 SSE 15 19 8 10 1018.5 1018.4 0.0
03/07:00am 15.3 13.6 11.3 77 2.1 SSE 11 15 6 8 1018.5 1018.4 0.0
03/06:30am 15.3 13.2 11.1 76 2.2 SSE 13 19 7 10 1017.5 1017.5 0.0
03/06:00am 15.3 13.6 11.3 77 2.1 SSE 11 15 6 8 1017.2 1017.2 0.0
03/05:30am 15.6 13.5 11.2 75 2.4 SSE 13 20 7 11 1016.9 1016.9 0.0
03/05:00am 15.6 13.8 11.0 74 2.5 SSE 11 15 6 8 1016.7 1016.7 0.0
03/04:30am 16.0 15.1 11.2 73 2.6 SSE 7 13 4 7 1017.1 1017.1 0.0
03/04:00am 16.2 14.4 10.9 71 2.8 SSE 11 17 6 9 1016.7 1016.7 0.0
03/03:30am 16.2 14.5 11.2 72 2.7 SSE 11 17 6 9 1016.6 1016.6 0.0
03/03:00am 16.4 14.7 11.1 71 2.8 SSE 11 19 6 10 1016.8 1016.8 0.0
03/02:30am 16.5 14.9 11.4 72 2.8 SE 11 15 6 8 1017.0 1017.0 0.0
03/02:00am 16.4 15.3 11.8 74 2.5 SSE 9 13 5 7 1017.1 1017.1 0.0
03/01:30am 16.5 15.4 12.1 75 2.4 SSE 9 13 5 7 1017.4 1017.4 0.0
03/01:00am 16.7 15.0 12.5 76 2.3 SSE 13 17 7 9 1017.7 1017.7 0.0
03/12:30am 16.8 15.9 12.5 76 2.4 SSE 9 13 5 7 1017.6 1017.6 0.0
03/12:00am 17.0 15.0 12.7 76 2.4 SSE 15 20 8 11 1017.6 1017.6 0.0
 
Date/Time
CDT
Temp
°C
App
Temp
°C
Dew
Point
Rel
Hum
%
Delta-T
°C
Wind Press
QNH
hPa
Press
MSL
hPa
Rain
since 9 am
mm
Dir
 
Spd
km/h
Gust
km/h
Spd
kts
Gust
kts
02/11:30pm 17.1 15.5 12.8 76 2.4 SSE 13 19 7 10 1017.5 1017.5 0.0
02/11:00pm 17.0 15.3 12.3 74 2.6 SSE 13 17 7 9 1017.6 1017.6 0.0
02/10:30pm 17.1 15.6 11.8 71 2.9 SE 11 15 6 8 1017.7 1017.7 0.0
02/10:00pm 16.9 15.7 11.6 71 2.9 S 9 13 5 7 1017.9 1017.9 0.0
02/09:30pm 17.1 15.6 11.8 71 2.9 SE 11 15 6 8 1017.6 1017.6 0.0
02/09:00pm 17.3 14.3 11.8 70 3.0 SSE 19 24 10 13 1017.0 1017.0 0.0
02/08:30pm 17.6 14.5 11.6 68 3.3 SSE 19 26 10 14 1016.3 1016.3 0.0
02/08:00pm 17.9 14.7 11.9 68 3.3 SSE 20 26 11 14 1015.9 1015.9 0.0
02/07:30pm 18.1 14.6 12.3 69 3.2 SSE 22 26 12 14 1016.0 1016.0 0.0
02/07:00pm 18.5 14.9 11.8 65 3.7 SSE 22 28 12 15 1016.0 1016.0 0.0
02/06:30pm 18.5 14.6 12.0 66 3.6 SSE 24 32 13 17 1015.6 1015.6 0.0
02/06:00pm 18.5 14.5 12.9 70 3.1 S 26 32 14 17 1015.2 1015.2 0.0
02/05:30pm 18.5 15.6 14.0 75 2.6 S 22 30 12 16 1015.0 1015.0 0.0
02/05:00pm 18.7 14.8 13.3 71 3.1 S 26 35 14 19 1015.0 1015.0 0.0
02/04:30pm 19.5 15.9 13.0 66 3.7 SSW 24 30 13 16 1014.9 1014.9 0.0
02/04:00pm 20.1 16.7 13.6 66 3.7 SSW 24 32 13 17 1015.2 1015.2 0.0
02/03:30pm 20.4 17.2 14.3 68 3.5 SSW 24 30 13 16 1014.9 1014.9 0.0
02/03:00pm 20.3 17.9 14.4 69 3.4 SSW 20 26 11 14 1014.8 1014.8 0.0
02/02:30pm 21.2 18.7 13.6 62 4.4 SSW 19 22 10 12 1014.4 1014.4 0.0
02/02:00pm 20.5 17.6 13.9 66 3.8 SSW 22 28 12 15 1014.4 1014.4 0.0
02/01:30pm 21.2 20.8 14.1 64 4.1 SW 9 13 5 7 1014.7 1014.7 0.0
02/01:00pm 21.9 20.3 12.7 56 5.2 SSW 13 17 7 9 1014.9 1014.9 0.0
02/12:30pm 20.1 18.5 14.0 68 3.5 WSW 15 17 8 9 1015.5 1015.5 0.0
02/12:00pm 22.0 21.5 12.5 54 5.4 W 7 13 4 7 1015.4 1015.4 0.0
02/11:30am 22.3 21.9 12.5 53 5.6 SE 6 9 3 5 1015.1 1015.1 0.0
02/11:00am 20.6 20.2 13.1 62 4.3 ENE 7 11 4 6 1015.1 1015.1 0.0
02/10:30am 19.8 19.0 13.0 65 3.9 E 9 13 5 7 1014.9 1014.9 0.0
02/10:00am 19.3 18.3 13.3 68 3.4 E 11 17 6 9 1014.5 1014.5 0.0
02/09:30am 18.0 17.0 13.5 75 2.5 ESE 11 15 6 8 1014.7 1014.7 0.0

Other Formats:

Comma delimited format used in spreadsheet applications
http://www.bom.gov.au/fwo/IDS60801/IDS60801.94658.axf

JavaScript Object Notation format (JSON) in row-major order
http://www.bom.gov.au/fwo/IDS60801/IDS60801.94658.json